| time (UTC) | temp F | wind direction | speed MPH | gust MPH | rain 1hr in | rain 24hr in | rain mn in | humidity % | barometer mb |
| 20260831094017 | 61 | 0.0 | 0.0 | 0.00 | 0.15 | 0.00 | 97 | 1018.4 | |
| 20260831093017 | 61 | 0.0 | 0.0 | 0.00 | 0.15 | 0.00 | 97 | 1018.5 | |
| 20260831092017 | 61 | 0.0 | 0.0 | 0.00 | 0.15 | 0.00 | 96 | 1018.5 | |
| 20260831091057 | 61 | 0.0 | 0.0 | 0.00 | 0.15 | 0.00 | 96 | 1018.4 | |
| 20260831090017 | 61 | 0.0 | 0.0 | 0.00 | 0.15 | 0.00 | 96 | 1018.3 | |
| 20260831085038 | 61 | 0.0 | 0.0 | 0.00 | 0.15 | 0.00 | 96 | 1018.1 | |
| 20260831084018 | 61 | 0.0 | 0.0 | 0.00 | 0.15 | 0.00 | 96 | 1018.2 | |
| 20260831083016 | 62 | 0.0 | 0.0 | 0.00 | 0.15 | 0.00 | 96 | 1018.2 | |
| 20260831082026 | 62 | 0.0 | 0.0 | 0.00 | 0.15 | 0.00 | 96 | 1018.1 | |
| 20260831081016 | 62 | 0.0 | 0.0 | 0.00 | 0.15 | 0.00 | 96 | 1018.1 | |
| 20260831080020 | 62 | 0.0 | 0.0 | 0.00 | 0.15 | 0.00 | 96 | 1017.9 | |
| 20260831075036 | 62 | 0.0 | 0.0 | 0.00 | 0.15 | 0.00 | 96 | 1018.1 | |
| 20260831074016 | 62 | 0.0 | 0.0 | 0.00 | 0.15 | 0.00 | 96 | 1018.1 | |
| 20260831073020 | 62 | 0.0 | 0.0 | 0.00 | 0.15 | 0.00 | 96 | 1018.1 | |
| 20260831072017 | 63 | 0.0 | 0.0 | 0.00 | 0.15 | 0.00 | 96 | 1018.1 | |
| 20260831071020 | 63 | 0.0 | 0.0 | 0.00 | 0.15 | 0.00 | 96 | 1017.9 | |
| 20260831070017 | 63 | 0.0 | 0.0 | 0.00 | 0.15 | 0.00 | 95 | 1017.8 | |
| 20260831065039 | 63 | 0.0 | 0.0 | 0.00 | 0.15 | 0.00 | 95 | 1017.7 | |
| 20260831064016 | 63 | 0.0 | 0.0 | 0.00 | 0.15 | 0.00 | 95 | 1017.7 | |
| 20260831063016 | 63 | 0.0 | 0.0 | 0.00 | 0.15 | 0.00 | 95 | 1017.7 | |
| 20260831062017 | 64 | 0.0 | 0.0 | 0.00 | 0.15 | 0.00 | 95 | 1017.8 | |
| 20260831061016 | 64 | 0.0 | 0.0 | 0.00 | 0.15 | 0.00 | 95 | 1017.7 | |
| 20260831060016 | 64 | 0.0 | 0.0 | 0.00 | 0.15 | 0.00 | 94 | 1017.8 | |
| 20260831055016 | 64 | 0.0 | 0.0 | 0.00 | 0.15 | 0.00 | 95 | 1017.6 | |
| 20260831054016 | 65 | 0.0 | 0.0 | 0.00 | 0.15 | 0.00 | 94 | 1017.6 | |
| 20260831053016 | 65 | 0.0 | 0.0 | 0.00 | 0.15 | 0.00 | 94 | 1017.5 | |
| 20260831052056 | 65 | 0.0 | 0.0 | 0.00 | 0.15 | 0.00 | 94 | 1017.3 | |
| 20260831051056 | 65 | 0.0 | 0.0 | 0.00 | 0.15 | 0.00 | 94 | 1017.4 | |
| 20260831050016 | 66 | 0.0 | 0.0 | 0.00 | 0.15 | 0.00 | 94 | 1017.5 | |
| 20260831045016 | 66 | 0.0 | 0.0 | 0.00 | 0.15 | 0.00 | 93 | 1017.4 | |
| 20260831044016 | 66 | 0.0 | 0.0 | 0.00 | 0.15 | 0.00 | 93 | 1017.3 | |
| 20260831043016 | 66 | 0.0 | 0.0 | 0.00 | 0.15 | 0.00 | 93 | 1017.1 | |
| 20260831042016 | 66 | 0.0 | 0.0 | 0.00 | 0.15 | 0.00 | 93 | 1017.2 | |
| 20260831041016 | 66 | 0.0 | 0.0 | 0.00 | 0.15 | 0.00 | 92 | 1017.4 | |
| 20260831040016 | 67 | 0.0 | 0.0 | 0.00 | 0.15 | 0.15 | 91 | 1017.3 | |
| 20260831035038 | 67 | 0.0 | 0.0 | 0.00 | 0.15 | 0.15 | 90 | 1017.2 | |
| 20260831034037 | 68 | 0.0 | 0.0 | 0.00 | 0.15 | 0.15 | 89 | 1017.2 | |
| 20260831033017 | 68 | 0.0 | 0.0 | 0.00 | 0.15 | 0.15 | 89 | 1017.3 | |
| 20260831032037 | 69 | 0.0 | 2.0 | 0.00 | 0.15 | 0.15 | 89 | 1017.0 | |
| 20260831031057 | 69 | 0.0 | 1.0 | 0.00 | 0.15 | 0.15 | 89 | 1017.2 | |
| 20260831030018 | 69 | 0.0 | 2.0 | 0.00 | 0.15 | 0.15 | 90 | 1017.1 | |
| 20260831025017 | 69 | 0.0 | 1.0 | 0.00 | 0.15 | 0.15 | 91 | 1017.4 | |
| 20260831024017 | 69 | 0.0 | 0.0 | 0.00 | 0.15 | 0.15 | 91 | 1017.3 | |
| 20260831023017 | 69 | 0.0 | 0.0 | 0.00 | 0.15 | 0.15 | 92 | 1017.3 | |
| 20260831022017 | 70 | 0.0 | 1.0 | 0.00 | 0.15 | 0.15 | 92 | 1017.3 | |
| 20260831021017 | 70 | 0.0 | 0.0 | 0.00 | 0.15 | 0.15 | 92 | 1017.2 | |
| 20260831020057 | 70 | 0.0 | 0.0 | 0.00 | 0.15 | 0.15 | 92 | 1017.2 | |
| 20260831015018 | 70 | 0.0 | 1.0 | 0.03 | 0.15 | 0.15 | 92 | 1016.9 | |
| 20260831014036 | 70 | 0.0 | 1.0 | 0.13 | 0.15 | 0.15 | 93 | 1016.9 | |
| 20260831013017 | 71 | 0.0 | 0.0 | 0.15 | 0.15 | 0.15 | 93 | 1016.8 | |
| 20260831012016 | 71 | 0.0 | 1.0 | 0.15 | 0.15 | 0.15 | 92 | 1016.7 | |
| 20260831011017 | 71 | 0.0 | 1.0 | 0.15 | 0.15 | 0.15 | 91 | 1016.6 | |
| 20260831010017 | 72 | 0.0 | 1.0 | 0.15 | 0.15 | 0.15 | 89 | 1016.6 | |
| 20260831005018 | 73 | 0.0 | 0.0 | 0.12 | 0.12 | 0.12 | 86 | 1016.9 | |
| 20260831004016 | 74 | 0.0 | 1.0 | 0.02 | 0.02 | 0.02 | 82 | 1016.5 | |
| 20260831003057 | 74 | 0.0 | 1.0 | 0.00 | 0.00 | 0.00 | 79 | 1016.1 | |
| 20260831002017 | 75 | 0.0 | 0.0 | 0.00 | 0.00 | 0.00 | 78 | 1016.0 | |
| 20260831001017 | 75 | 0.0 | 1.0 | 0.00 | 0.00 | 0.00 | 77 | 1015.9 | |
| 20260831000016 | 75 | 0.0 | 1.0 | 0.00 | 0.00 | 0.00 | 77 | 1015.9 | |
| 20260830235016 | 75 | 0.0 | 0.0 | 0.00 | 0.00 | 0.00 | 76 | 1015.8 | |
| 20260830234017 | 75 | 0.0 | 1.0 | 0.00 | 0.00 | 0.00 | 75 | 1015.8 | |
| 20260830233037 | 75 | 0.0 | 1.0 | 0.00 | 0.00 | 0.00 | 75 | 1015.8 | |
| 20260830232019 | 75 | 0.0 | 1.0 | 0.00 | 0.00 | 0.00 | 74 | 1015.8 | |
| 20260830231018 | 75 | 0.0 | 1.0 | 0.00 | 0.00 | 0.00 | 73 | 1015.7 | |
| 20260830230019 | 76 | 0.0 | 2.0 | 0.00 | 0.00 | 0.00 | 73 | 1015.7 | |
| 20260830225016 | 76 | 0.0 | 1.0 | 0.00 | 0.00 | 0.00 | 73 | 1015.9 | |
| 20260830224017 | 76 | 0.0 | 2.0 | 0.00 | 0.00 | 0.00 | 72 | 1016.0 | |
| 20260830223017 | 76 | 0.0 | 2.0 | 0.00 | 0.00 | 0.00 | 72 | 1015.9 | |
| 20260830222016 | 76 | 0.0 | 4.0 | 0.00 | 0.00 | 0.00 | 71 | 1015.9 | |
| 20260830221018 | 76 | 0.0 | 3.0 | 0.00 | 0.00 | 0.00 | 71 | 1015.8 | |
| 20260830220058 | 76 | 248 | 1.0 | 4.0 | 0.00 | 0.00 | 0.00 | 71 | 1015.9 |
| 20260830215020 | 76 | 293 | 1.0 | 6.0 | 0.00 | 0.00 | 0.00 | 70 | 1015.9 |
| 20260830214018 | 77 | 0.0 | 3.0 | 0.00 | 0.00 | 0.00 | 70 | 1016.0 | |
| 20260830213040 | 77 | 248 | 1.0 | 5.0 | 0.00 | 0.00 | 0.00 | 69 | 1016.0 |
| 20260830212031 | 77 | 270 | 1.0 | 7.0 | 0.00 | 0.00 | 0.00 | 68 | 1016.0 |
| 20260830211037 | 77 | 248 | 2.0 | 7.0 | 0.00 | 0.00 | 0.00 | 68 | 1016.0 |
| 20260830210016 | 78 | 293 | 1.0 | 5.0 | 0.00 | 0.00 | 0.00 | 67 | 1016.1 |
| 20260830205016 | 78 | 225 | 1.0 | 6.0 | 0.00 | 0.00 | 0.00 | 67 | 1016.1 |
| 20260830204017 | 78 | 248 | 1.0 | 3.0 | 0.00 | 0.00 | 0.00 | 67 | 1016.1 |
| 20260830203021 | 79 | 225 | 1.0 | 4.0 | 0.00 | 0.00 | 0.00 | 65 | 1016.2 |
| 20260830202021 | 79 | 270 | 1.0 | 5.0 | 0.00 | 0.00 | 0.00 | 64 | 1016.2 |
| 20260830201037 | 79 | 225 | 1.0 | 5.0 | 0.00 | 0.00 | 0.00 | 64 | 1016.3 |
| 20260830200019 | 79 | 270 | 1.0 | 7.0 | 0.00 | 0.00 | 0.00 | 63 | 1016.4 |
| 20260830195017 | 79 | 293 | 1.0 | 4.0 | 0.00 | 0.00 | 0.00 | 61 | 1016.3 |
| 20260830194016 | 79 | 0.0 | 2.0 | 0.00 | 0.00 | 0.00 | 59 | 1016.4 | |
| 20260830193020 | 79 | 0.0 | 2.0 | 0.00 | 0.00 | 0.00 | 60 | 1016.5 | |
| 20260830192016 | 79 | 270 | 1.0 | 7.0 | 0.00 | 0.00 | 0.00 | 58 | 1016.7 |
| 20260830191018 | 79 | 225 | 1.0 | 5.0 | 0.00 | 0.00 | 0.00 | 57 | 1016.9 |
| 20260830190016 | 80 | 225 | 2.0 | 6.0 | 0.00 | 0.00 | 0.00 | 56 | 1017.1 |
| 20260830185036 | 80 | 293 | 1.0 | 4.0 | 0.00 | 0.00 | 0.00 | 55 | 1017.1 |
| 20260830184016 | 80 | 293 | 1.0 | 4.0 | 0.00 | 0.00 | 0.00 | 54 | 1017.3 |
| 20260830183017 | 81 | 225 | 2.0 | 6.0 | 0.00 | 0.00 | 0.00 | 52 | 1017.4 |
| 20260830182016 | 81 | 248 | 1.0 | 6.0 | 0.00 | 0.00 | 0.00 | 49 | 1017.6 |
| 20260830181017 | 81 | 225 | 2.0 | 6.0 | 0.00 | 0.00 | 0.00 | 49 | 1017.6 |
| 20260830180017 | 82 | 293 | 1.0 | 5.0 | 0.00 | 0.00 | 0.00 | 49 | 1017.6 |
| 20260830175016 | 82 | 270 | 1.0 | 4.0 | 0.00 | 0.00 | 0.00 | 47 | 1017.6 |
| 20260830174018 | 81 | 248 | 2.0 | 6.0 | 0.00 | 0.00 | 0.00 | 48 | 1017.6 |
| 20260830173026 | 82 | 270 | 1.0 | 5.0 | 0.00 | 0.00 | 0.00 | 49 | 1017.8 |
| 20260830172105 | 81 | 248 | 1.0 | 6.0 | 0.00 | 0.00 | 0.00 | 49 | 1017.8 |
| 20260830171018 | 81 | 270 | 2.0 | 6.0 | 0.00 | 0.00 | 0.00 | 48 | 1018.0 |
| 20260830170023 | 81 | 225 | 3.0 | 8.0 | 0.00 | 0.00 | 0.00 | 50 | 1018.1 |
| 20260830165020 | 81 | 293 | 1.0 | 6.0 | 0.00 | 0.00 | 0.00 | 56 | 1018.2 |
| 20260830164018 | 80 | 0.0 | 1.0 | 0.00 | 0.00 | 0.00 | 58 | 1018.2 | |
| 20260830163057 | 79 | 203 | 1.0 | 4.0 | 0.00 | 0.00 | 0.00 | 59 | 1018.3 |
| 20260830162020 | 80 | 0.0 | 1.0 | 0.00 | 0.00 | 0.00 | 59 | 1018.5 | |
| 20260830161021 | 80 | 225 | 1.0 | 6.0 | 0.00 | 0.00 | 0.00 | 58 | 1018.7 |
| 20260830160020 | 79 | 0.0 | 1.0 | 0.00 | 0.00 | 0.00 | 58 | 1018.7 | |
| 20260830155017 | 78 | 248 | 1.0 | 3.0 | 0.00 | 0.00 | 0.00 | 60 | 1018.8 |
| 20260830154021 | 78 | 0.0 | 3.0 | 0.00 | 0.00 | 0.00 | 64 | 1018.9 | |
| 20260830153043 | 76 | 0.0 | 3.0 | 0.00 | 0.00 | 0.00 | 65 | 1019.1 | |
| 20260830152018 | 76 | 0.0 | 3.0 | 0.00 | 0.00 | 0.00 | 66 | 1019.1 | |
| 20260830151058 | 75 | 0.0 | 3.0 | 0.00 | 0.00 | 0.00 | 67 | 1019.3 | |
| 20260830150018 | 74 | 0.0 | 2.0 | 0.00 | 0.00 | 0.00 | 68 | 1019.4 | |
| 20260830145017 | 74 | 0.0 | 5.0 | 0.00 | 0.00 | 0.00 | 68 | 1019.6 | |
| 20260830144020 | 73 | 0.0 | 1.0 | 0.00 | 0.00 | 0.00 | 69 | 1019.6 | |
| 20260830143021 | 73 | 0.0 | 2.0 | 0.00 | 0.00 | 0.00 | 69 | 1019.7 | |
| 20260830142018 | 73 | 0.0 | 3.0 | 0.00 | 0.00 | 0.00 | 68 | 1019.7 | |
| 20260830141017 | 72 | 0.0 | 2.0 | 0.00 | 0.00 | 0.00 | 69 | 1019.6 | |
| 20260830140025 | 71 | 0.0 | 1.0 | 0.00 | 0.00 | 0.00 | 71 | 1019.8 | |
| 20260830135028 | 70 | 0.0 | 1.0 | 0.00 | 0.00 | 0.00 | 71 | 1019.8 | |
| 20260830134018 | 69 | 0.0 | 2.0 | 0.00 | 0.00 | 0.00 | 73 | 1019.9 | |
| 20260830133059 | 69 | 0.0 | 3.0 | 0.00 | 0.00 | 0.00 | 74 | 1020.1 | |
| 20260830132018 | 69 | 0.0 | 1.0 | 0.00 | 0.00 | 0.00 | 73 | 1020.1 | |
| 20260830131022 | 68 | 0.0 | 2.0 | 0.00 | 0.00 | 0.00 | 75 | 1020.2 | |
| 20260830130017 | 67 | 0.0 | 1.0 | 0.00 | 0.00 | 0.00 | 77 | 1020.3 | |
| 20260830125019 | 67 | 0.0 | 3.0 | 0.00 | 0.00 | 0.00 | 77 | 1020.4 | |
| 20260830124017 | 67 | 0.0 | 2.0 | 0.00 | 0.00 | 0.00 | 78 | 1020.5 | |
| 20260830123018 | 66 | 0.0 | 3.0 | 0.00 | 0.00 | 0.00 | 79 | 1020.7 | |
| 20260830122025 | 65 | 248 | 1.0 | 6.0 | 0.00 | 0.00 | 0.00 | 79 | 1020.8 |
| 20260830121018 | 65 | 0.0 | 0.0 | 0.00 | 0.00 | 0.00 | 81 | 1020.6 | |
| 20260830120018 | 64 | 0.0 | 1.0 | 0.00 | 0.00 | 0.00 | 84 | 1020.8 | |
| 20260830115018 | 63 | 0.0 | 1.0 | 0.00 | 0.00 | 0.00 | 87 | 1020.9 | |
| 20260830114018 | 61 | 0.0 | 1.0 | 0.00 | 0.00 | 0.00 | 90 | 1020.9 | |
| 20260830113017 | 61 | 0.0 | 0.0 | 0.00 | 0.00 | 0.00 | 91 | 1020.8 | |
| 20260830112017 | 60 | 0.0 | 0.0 | 0.00 | 0.00 | 0.00 | 92 | 1020.8 | |
| 20260830111018 | 59 | 0.0 | 0.0 | 0.00 | 0.00 | 0.00 | 93 | 1020.8 | |
| 20260830110019 | 59 | 0.0 | 0.0 | 0.00 | 0.00 | 0.00 | 92 | 1020.7 | |
| 20260830105018 | 59 | 0.0 | 0.0 | 0.00 | 0.00 | 0.00 | 92 | 1020.8 | |
| 20260830104017 | 59 | 0.0 | 0.0 | 0.00 | 0.00 | 0.00 | 92 | 1020.7 | |
| 20260830103039 | 59 | 0.0 | 0.0 | 0.00 | 0.00 | 0.00 | 91 | 1020.8 | |
| 20260830102017 | 59 | 0.0 | 0.0 | 0.00 | 0.00 | 0.00 | 90 | 1020.9 | |
| 20260830101017 | 59 | 0.0 | 0.0 | 0.00 | 0.00 | 0.00 | 91 | 1020.7 | |
| 20260830100038 | 60 | 0.0 | 0.0 | 0.00 | 0.00 | 0.00 | 91 | 1020.8 | |
| 20260830095038 | 60 | 0.0 | 0.0 | 0.00 | 0.00 | 0.00 | 90 | 1020.9 |